Overseas Long Beach — WAAT — position and weather

sailwx.info

Track history (hours):
 
Tides and Currents Weather Stations Pressure Air Temp Water Temp Dewpoint Dewpoint Depression Visibility Wind Speed Wind Dir Waves Ship Positions

Overseas Long Beach

Owner: ASC Leasing II, Inc., Philadelphia, PA. More information available from US FCC via Universal Licensing System and Coast Guard Vessel Documentation Center.

Last reported at 2016-Feb-06 10:30 UTC. Time now 2016-Feb-08 23:14 UTC.
Position N 29°21' W 094°43'.

Length 181 m; draft 8 m.

Type: Tanker. MMSI: 367703000.

Date/timePositionNaut miles runAvg speedWind from/ knotsBaromVisibWave heightAir tempDewpointWater temp
2016-Feb-06 10:30N 29°21' W 094°43'2 0.2
2016-Feb-06 03:27N 29°20' W 094°41'  
2016-Feb-03 10:14N 25°17' W 079°57'811.1
2016-Feb-03 09:33N 25°24' W 079°57'1111.5
2016-Feb-03 08:33N 25°36' W 079°55'1212.0
2016-Feb-03 07:33N 25°48' W 079°56'1312.5
2016-Feb-03 06:33N 26°00' W 079°58'1312.5
2016-Feb-03 05:30N 26°13' W 079°58'3812.7
2016-Feb-03 02:32N 26°51' W 079°57'1111.4
2016-Feb-03 01:33N 27°02' W 079°58'  
2016-Jan-30 18:25N 26°30' W 079°42'1416.7
2016-Jan-30 17:33N 26°15' W 079°42'1616.4
2016-Jan-30 16:33N 25°59' W 079°46'1615.9
2016-Jan-30 15:33N 25°44' W 079°50'1615.7
2016-Jan-30 14:33N 25°29' W 079°55'  
2016-Jan-27 23:15N 29°49' W 093°58'  
Track history (hours):
 
Tides and Currents Weather Stations Pressure Air Temp Water Temp Dewpoint Dewpoint Depression Visibility Wind Speed Wind Dir Waves Ship Positions

Overseas Long Beach

Owner: ASC Leasing II, Inc., Philadelphia, PA. More information available from US FCC via Universal Licensing System and Coast Guard Vessel Documentation Center.

Last reported at 2016-Feb-06 10:30 UTC. Time now 2016-Feb-08 23:14 UTC.
Position N 29°21' W 094°43'.

Length 181 m; draft 8 m.

Type: Tanker. MMSI: 367703000.

Date/timePositionNaut miles runAvg speedWind from/ knotsBaromVisibWave heightAir tempDewpointWater temp
2016-Feb-06 10:30N 29°21' W 094°43'2 0.2
2016-Feb-06 03:27N 29°20' W 094°41'  
2016-Feb-03 10:14N 25°17' W 079°57'811.1
2016-Feb-03 09:33N 25°24' W 079°57'1111.5
2016-Feb-03 08:33N 25°36' W 079°55'1212.0
2016-Feb-03 07:33N 25°48' W 079°56'1312.5
2016-Feb-03 06:33N 26°00' W 079°58'1312.5
2016-Feb-03 05:30N 26°13' W 079°58'3812.7
2016-Feb-03 02:32N 26°51' W 079°57'1111.4
2016-Feb-03 01:33N 27°02' W 079°58'  
2016-Jan-30 18:25N 26°30' W 079°42'1416.7
2016-Jan-30 17:33N 26°15' W 079°42'1616.4
2016-Jan-30 16:33N 25°59' W 079°46'1615.9
2016-Jan-30 15:33N 25°44' W 079°50'1615.7
2016-Jan-30 14:33N 25°29' W 079°55'  
2016-Jan-27 23:15N 29°49' W 093°58'  

Dump ship's entire track history